sensor_id;sensor_type;location;lat;lon;timestamp;temperature;humidity
21582;DHT22;10952;50.836;4.348;2024-01-11T00:00:29;-0.40;99.90
21582;DHT22;10952;50.836;4.348;2024-01-11T00:02:55;-0.50;99.90
21582;DHT22;10952;50.836;4.348;2024-01-11T00:05:20;-0.40;99.90
21582;DHT22;10952;50.836;4.348;2024-01-11T00:07:47;-0.40;99.90
21582;DHT22;10952;50.836;4.348;2024-01-11T00:10:13;-0.40;99.90
21582;DHT22;10952;50.836;4.348;2024-01-11T00:12:39;-0.30;99.90
21582;DHT22;10952;50.836;4.348;2024-01-11T00:15:05;-0.40;99.90
21582;DHT22;10952;50.836;4.348;2024-01-11T00:17:31;-0.40;99.90
21582;DHT22;10952;50.836;4.348;2024-01-11T00:19:57;-0.40;99.90
21582;DHT22;10952;50.836;4.348;2024-01-11T00:22:22;-0.40;99.90
21582;DHT22;10952;50.836;4.348;2024-01-11T00:24:48;-0.40;99.90
21582;DHT22;10952;50.836;4.348;2024-01-11T00:27:14;-0.50;99.90
21582;DHT22;10952;50.836;4.348;2024-01-11T00:29:39;-0.50;99.90
21582;DHT22;10952;50.836;4.348;2024-01-11T00:32:05;-0.40;99.90
21582;DHT22;10952;50.836;4.348;2024-01-11T00:34:31;-0.30;99.90
21582;DHT22;10952;50.836;4.348;2024-01-11T00:36:56;-0.40;99.90
21582;DHT22;10952;50.836;4.348;2024-01-11T00:39:22;-0.50;99.90
21582;DHT22;10952;50.836;4.348;2024-01-11T00:41:48;-0.50;99.90
21582;DHT22;10952;50.836;4.348;2024-01-11T00:44:14;-0.60;99.90
21582;DHT22;10952;50.836;4.348;2024-01-11T00:46:40;-0.60;99.90
21582;DHT22;10952;50.836;4.348;2024-01-11T00:49:06;-0.60;99.90
21582;DHT22;10952;50.836;4.348;2024-01-11T00:51:32;-0.60;99.90
21582;DHT22;10952;50.836;4.348;2024-01-11T00:53:58;-0.50;99.90
21582;DHT22;10952;50.836;4.348;2024-01-11T00:56:24;-0.60;99.90
21582;DHT22;10952;50.836;4.348;2024-01-11T00:58:50;-0.60;99.90
21582;DHT22;10952;50.836;4.348;2024-01-11T01:01:15;-0.50;99.90
21582;DHT22;10952;50.836;4.348;2024-01-11T01:03:42;-0.60;99.90
21582;DHT22;10952;50.836;4.348;2024-01-11T01:06:09;-0.60;99.90
21582;DHT22;10952;50.836;4.348;2024-01-11T01:08:34;-0.60;99.90
21582;DHT22;10952;50.836;4.348;2024-01-11T01:11:00;-0.70;99.90
21582;DHT22;10952;50.836;4.348;2024-01-11T01:13:26;-0.70;99.90
21582;DHT22;10952;50.836;4.348;2024-01-11T01:15:51;-0.70;99.90
21582;DHT22;10952;50.836;4.348;2024-01-11T01:18:17;-0.70;99.90
21582;DHT22;10952;50.836;4.348;2024-01-11T01:20:43;-0.60;99.90
21582;DHT22;10952;50.836;4.348;2024-01-11T01:23:08;-0.70;99.90
21582;DHT22;10952;50.836;4.348;2024-01-11T01:25:34;-0.60;99.90
21582;DHT22;10952;50.836;4.348;2024-01-11T01:28:00;-0.70;99.90
21582;DHT22;10952;50.836;4.348;2024-01-11T01:30:27;-0.60;99.90
21582;DHT22;10952;50.836;4.348;2024-01-11T01:32:53;-0.70;99.90
21582;DHT22;10952;50.836;4.348;2024-01-11T01:35:19;-0.60;99.90
21582;DHT22;10952;50.836;4.348;2024-01-11T01:37:44;-0.70;99.90
21582;DHT22;10952;50.836;4.348;2024-01-11T01:40:11;-0.60;99.90
21582;DHT22;10952;50.836;4.348;2024-01-11T01:42:47;-0.70;99.90
21582;DHT22;10952;50.836;4.348;2024-01-11T01:45:15;-0.70;99.90
21582;DHT22;10952;50.836;4.348;2024-01-11T01:47:41;-0.70;99.90
21582;DHT22;10952;50.836;4.348;2024-01-11T01:50:10;-0.80;99.90
21582;DHT22;10952;50.836;4.348;2024-01-11T01:52:36;-0.80;99.90
21582;DHT22;10952;50.836;4.348;2024-01-11T01:55:04;-0.80;99.90
21582;DHT22;10952;50.836;4.348;2024-01-11T01:57:33;-0.80;99.90
21582;DHT22;10952;50.836;4.348;2024-01-11T02:00:00;-0.70;99.90
21582;DHT22;10952;50.836;4.348;2024-01-11T02:02:28;-0.70;99.90
21582;DHT22;10952;50.836;4.348;2024-01-11T02:04:55;-0.80;99.90
21582;DHT22;10952;50.836;4.348;2024-01-11T02:07:21;-1.00;99.90
21582;DHT22;10952;50.836;4.348;2024-01-11T02:09:47;-1.00;99.90
21582;DHT22;10952;50.836;4.348;2024-01-11T02:12:13;-1.00;99.90
21582;DHT22;10952;50.836;4.348;2024-01-11T02:14:40;-1.00;99.90
21582;DHT22;10952;50.836;4.348;2024-01-11T02:17:06;-1.00;99.90
21582;DHT22;10952;50.836;4.348;2024-01-11T02:19:32;-1.00;99.90
21582;DHT22;10952;50.836;4.348;2024-01-11T02:22:05;-0.90;99.90
21582;DHT22;10952;50.836;4.348;2024-01-11T02:24:33;-0.80;99.90
21582;DHT22;10952;50.836;4.348;2024-01-11T02:27:03;-0.80;99.90
21582;DHT22;10952;50.836;4.348;2024-01-11T02:29:30;-0.90;99.90
21582;DHT22;10952;50.836;4.348;2024-01-11T02:31:57;-1.00;99.90
21582;DHT22;10952;50.836;4.348;2024-01-11T02:34:24;-1.10;99.90
21582;DHT22;10952;50.836;4.348;2024-01-11T02:36:53;-1.10;99.90
21582;DHT22;10952;50.836;4.348;2024-01-11T02:39:19;-1.10;99.90
21582;DHT22;10952;50.836;4.348;2024-01-11T02:41:47;-1.00;99.90
21582;DHT22;10952;50.836;4.348;2024-01-11T02:44:15;-1.20;99.90
21582;DHT22;10952;50.836;4.348;2024-01-11T02:46:41;-1.20;99.90
21582;DHT22;10952;50.836;4.348;2024-01-11T02:49:06;-1.10;99.90
21582;DHT22;10952;50.836;4.348;2024-01-11T02:51:32;-1.10;99.90
21582;DHT22;10952;50.836;4.348;2024-01-11T02:53:58;-1.10;99.90
21582;DHT22;10952;50.836;4.348;2024-01-11T02:56:24;-1.10;99.90
21582;DHT22;10952;50.836;4.348;2024-01-11T02:58:49;-1.20;99.90
21582;DHT22;10952;50.836;4.348;2024-01-11T03:01:15;-1.30;99.90
21582;DHT22;10952;50.836;4.348;2024-01-11T03:03:41;-1.30;99.90
21582;DHT22;10952;50.836;4.348;2024-01-11T03:06:07;-1.10;99.90
21582;DHT22;10952;50.836;4.348;2024-01-11T03:08:33;-0.90;99.90
21582;DHT22;10952;50.836;4.348;2024-01-11T03:10:59;-1.00;99.90
21582;DHT22;10952;50.836;4.348;2024-01-11T03:13:24;-1.10;99.90
21582;DHT22;10952;50.836;4.348;2024-01-11T03:15:50;-1.10;99.90
21582;DHT22;10952;50.836;4.348;2024-01-11T03:18:16;-1.00;99.90
21582;DHT22;10952;50.836;4.348;2024-01-11T03:20:41;-1.00;99.90
21582;DHT22;10952;50.836;4.348;2024-01-11T03:23:07;-0.90;99.90
21582;DHT22;10952;50.836;4.348;2024-01-11T03:25:33;-0.90;99.90
21582;DHT22;10952;50.836;4.348;2024-01-11T03:27:58;-0.90;99.90
21582;DHT22;10952;50.836;4.348;2024-01-11T03:30:25;-0.90;99.90
21582;DHT22;10952;50.836;4.348;2024-01-11T03:32:51;-0.90;99.90
21582;DHT22;10952;50.836;4.348;2024-01-11T03:35:18;-1.00;99.90
21582;DHT22;10952;50.836;4.348;2024-01-11T03:37:43;-1.10;99.90
21582;DHT22;10952;50.836;4.348;2024-01-11T03:40:09;-1.00;99.90
21582;DHT22;10952;50.836;4.348;2024-01-11T03:42:35;-1.00;99.90
21582;DHT22;10952;50.836;4.348;2024-01-11T03:45:01;-0.90;99.90
21582;DHT22;10952;50.836;4.348;2024-01-11T03:47:26;-1.10;99.90
21582;DHT22;10952;50.836;4.348;2024-01-11T03:49:52;-1.30;99.90
21582;DHT22;10952;50.836;4.348;2024-01-11T03:52:18;-1.40;99.90
21582;DHT22;10952;50.836;4.348;2024-01-11T03:54:43;-1.50;99.90
21582;DHT22;10952;50.836;4.348;2024-01-11T03:57:09;-1.50;99.90
21582;DHT22;10952;50.836;4.348;2024-01-11T03:59:35;-1.40;99.90
21582;DHT22;10952;50.836;4.348;2024-01-11T04:02:00;-1.30;99.90
21582;DHT22;10952;50.836;4.348;2024-01-11T04:04:26;-1.20;99.90
21582;DHT22;10952;50.836;4.348;2024-01-11T04:06:52;-1.30;99.90
21582;DHT22;10952;50.836;4.348;2024-01-11T04:09:18;-1.40;99.90
21582;DHT22;10952;50.836;4.348;2024-01-11T04:11:45;-1.40;99.90
21582;DHT22;10952;50.836;4.348;2024-01-11T04:14:11;-1.30;99.90
21582;DHT22;10952;50.836;4.348;2024-01-11T04:16:41;-1.00;99.90
21582;DHT22;10952;50.836;4.348;2024-01-11T04:19:07;-1.00;99.90
21582;DHT22;10952;50.836;4.348;2024-01-11T04:21:33;-1.20;99.90
21582;DHT22;10952;50.836;4.348;2024-01-11T04:23:59;-1.10;99.90
21582;DHT22;10952;50.836;4.348;2024-01-11T04:26:25;-1.20;99.90
21582;DHT22;10952;50.836;4.348;2024-01-11T04:28:52;-1.10;99.90
21582;DHT22;10952;50.836;4.348;2024-01-11T04:31:18;-1.10;99.90
21582;DHT22;10952;50.836;4.348;2024-01-11T04:33:45;-0.90;99.90
21582;DHT22;10952;50.836;4.348;2024-01-11T04:36:11;-1.10;99.90
21582;DHT22;10952;50.836;4.348;2024-01-11T04:38:38;-1.10;99.90
21582;DHT22;10952;50.836;4.348;2024-01-11T04:41:10;-1.30;99.90
21582;DHT22;10952;50.836;4.348;2024-01-11T04:43:40;-1.50;99.90
21582;DHT22;10952;50.836;4.348;2024-01-11T04:46:18;-1.50;99.90
21582;DHT22;10952;50.836;4.348;2024-01-11T04:48:46;-1.60;99.90
21582;DHT22;10952;50.836;4.348;2024-01-11T04:51:12;-1.50;99.90
21582;DHT22;10952;50.836;4.348;2024-01-11T04:53:39;-1.70;99.90
21582;DHT22;10952;50.836;4.348;2024-01-11T04:56:06;-1.50;99.90
21582;DHT22;10952;50.836;4.348;2024-01-11T04:58:33;-1.50;99.90
21582;DHT22;10952;50.836;4.348;2024-01-11T05:01:00;-1.40;99.90
21582;DHT22;10952;50.836;4.348;2024-01-11T05:03:26;-1.40;99.90
21582;DHT22;10952;50.836;4.348;2024-01-11T05:05:51;-1.40;99.90
21582;DHT22;10952;50.836;4.348;2024-01-11T05:08:17;-1.60;99.90
21582;DHT22;10952;50.836;4.348;2024-01-11T05:10:43;-1.70;99.90
21582;DHT22;10952;50.836;4.348;2024-01-11T05:13:10;-1.60;99.90
21582;DHT22;10952;50.836;4.348;2024-01-11T05:15:35;-1.60;99.90
21582;DHT22;10952;50.836;4.348;2024-01-11T05:18:01;-1.70;99.90
21582;DHT22;10952;50.836;4.348;2024-01-11T05:20:27;-1.60;99.90
21582;DHT22;10952;50.836;4.348;2024-01-11T05:22:52;-1.70;99.90
21582;DHT22;10952;50.836;4.348;2024-01-11T05:25:18;-1.70;99.90
21582;DHT22;10952;50.836;4.348;2024-01-11T05:27:44;-1.70;99.90
21582;DHT22;10952;50.836;4.348;2024-01-11T05:30:10;-1.70;99.90
21582;DHT22;10952;50.836;4.348;2024-01-11T05:32:35;-1.70;99.90
21582;DHT22;10952;50.836;4.348;2024-01-11T05:35:01;-1.70;99.90
21582;DHT22;10952;50.836;4.348;2024-01-11T05:37:27;-1.60;99.90
21582;DHT22;10952;50.836;4.348;2024-01-11T05:39:53;-1.60;99.90
21582;DHT22;10952;50.836;4.348;2024-01-11T05:42:20;-1.50;99.90
21582;DHT22;10952;50.836;4.348;2024-01-11T05:44:45;-1.50;99.90
21582;DHT22;10952;50.836;4.348;2024-01-11T05:47:11;-1.60;99.90
21582;DHT22;10952;50.836;4.348;2024-01-11T05:49:37;-1.60;99.90
21582;DHT22;10952;50.836;4.348;2024-01-11T05:52:03;-1.50;99.90
21582;DHT22;10952;50.836;4.348;2024-01-11T05:54:28;-1.60;99.90
21582;DHT22;10952;50.836;4.348;2024-01-11T05:56:54;-1.60;99.90
21582;DHT22;10952;50.836;4.348;2024-01-11T05:59:24;-1.70;99.90
21582;DHT22;10952;50.836;4.348;2024-01-11T06:01:50;-1.70;99.90
21582;DHT22;10952;50.836;4.348;2024-01-11T06:04:16;-1.80;99.90
21582;DHT22;10952;50.836;4.348;2024-01-11T06:06:42;-1.70;99.90
21582;DHT22;10952;50.836;4.348;2024-01-11T06:09:08;-1.60;99.90
21582;DHT22;10952;50.836;4.348;2024-01-11T06:11:35;-1.60;99.90
21582;DHT22;10952;50.836;4.348;2024-01-11T06:14:01;-1.50;99.90
21582;DHT22;10952;50.836;4.348;2024-01-11T06:16:28;-1.50;99.90
21582;DHT22;10952;50.836;4.348;2024-01-11T06:18:54;-1.40;99.90
21582;DHT22;10952;50.836;4.348;2024-01-11T06:21:19;-1.40;99.90
21582;DHT22;10952;50.836;4.348;2024-01-11T06:23:46;-1.30;99.90
21582;DHT22;10952;50.836;4.348;2024-01-11T06:26:12;-1.30;99.90
21582;DHT22;10952;50.836;4.348;2024-01-11T06:28:37;-1.40;99.90
21582;DHT22;10952;50.836;4.348;2024-01-11T06:31:03;-1.30;99.90
21582;DHT22;10952;50.836;4.348;2024-01-11T06:33:29;-1.30;99.90
21582;DHT22;10952;50.836;4.348;2024-01-11T06:35:55;-1.50;99.90
21582;DHT22;10952;50.836;4.348;2024-01-11T06:38:21;-1.60;99.90
21582;DHT22;10952;50.836;4.348;2024-01-11T06:40:48;-1.60;99.90
21582;DHT22;10952;50.836;4.348;2024-01-11T06:43:14;-1.60;99.90
21582;DHT22;10952;50.836;4.348;2024-01-11T06:45:42;-1.60;99.90
21582;DHT22;10952;50.836;4.348;2024-01-11T06:48:08;-1.70;99.90
21582;DHT22;10952;50.836;4.348;2024-01-11T06:50:33;-1.70;99.90
21582;DHT22;10952;50.836;4.348;2024-01-11T06:53:00;-1.70;99.90
21582;DHT22;10952;50.836;4.348;2024-01-11T06:55:25;-1.80;99.90
21582;DHT22;10952;50.836;4.348;2024-01-11T06:57:51;-1.80;99.90
21582;DHT22;10952;50.836;4.348;2024-01-11T07:00:17;-1.90;99.90
21582;DHT22;10952;50.836;4.348;2024-01-11T07:02:43;-2.00;99.90
21582;DHT22;10952;50.836;4.348;2024-01-11T07:05:08;-1.90;99.90
21582;DHT22;10952;50.836;4.348;2024-01-11T07:07:34;-1.90;99.90
21582;DHT22;10952;50.836;4.348;2024-01-11T07:10:00;-1.80;99.90
21582;DHT22;10952;50.836;4.348;2024-01-11T07:12:26;-1.70;99.90
21582;DHT22;10952;50.836;4.348;2024-01-11T07:14:52;-1.80;99.90
21582;DHT22;10952;50.836;4.348;2024-01-11T07:17:18;-1.60;99.90
21582;DHT22;10952;50.836;4.348;2024-01-11T07:19:44;-1.60;99.90
21582;DHT22;10952;50.836;4.348;2024-01-11T07:22:09;-1.60;99.90
21582;DHT22;10952;50.836;4.348;2024-01-11T07:24:35;-1.60;99.90
21582;DHT22;10952;50.836;4.348;2024-01-11T07:27:05;-1.70;99.90
21582;DHT22;10952;50.836;4.348;2024-01-11T07:29:31;-1.80;99.90
21582;DHT22;10952;50.836;4.348;2024-01-11T07:31:56;-1.90;99.90
21582;DHT22;10952;50.836;4.348;2024-01-11T07:34:22;-1.90;99.90
21582;DHT22;10952;50.836;4.348;2024-01-11T07:36:50;-1.70;99.90
21582;DHT22;10952;50.836;4.348;2024-01-11T07:39:16;-1.70;99.90
21582;DHT22;10952;50.836;4.348;2024-01-11T07:41:41;-1.80;99.90
21582;DHT22;10952;50.836;4.348;2024-01-11T07:44:07;-1.90;99.90
21582;DHT22;10952;50.836;4.348;2024-01-11T07:46:33;-1.80;99.90
21582;DHT22;10952;50.836;4.348;2024-01-11T07:48:59;-1.90;99.90
21582;DHT22;10952;50.836;4.348;2024-01-11T07:51:24;-1.90;99.90
21582;DHT22;10952;50.836;4.348;2024-01-11T07:53:50;-1.90;99.90
21582;DHT22;10952;50.836;4.348;2024-01-11T07:56:16;-1.90;99.90
21582;DHT22;10952;50.836;4.348;2024-01-11T07:58:42;-2.00;99.90
21582;DHT22;10952;50.836;4.348;2024-01-11T08:01:09;-1.90;99.90
21582;DHT22;10952;50.836;4.348;2024-01-11T08:03:35;-1.90;99.90
21582;DHT22;10952;50.836;4.348;2024-01-11T08:06:01;-1.90;99.90
21582;DHT22;10952;50.836;4.348;2024-01-11T08:08:27;-2.00;99.90
21582;DHT22;10952;50.836;4.348;2024-01-11T08:10:53;-2.10;99.90
21582;DHT22;10952;50.836;4.348;2024-01-11T08:13:19;-2.10;99.90
21582;DHT22;10952;50.836;4.348;2024-01-11T08:15:47;-2.10;99.90
21582;DHT22;10952;50.836;4.348;2024-01-11T08:18:12;-2.00;99.90
21582;DHT22;10952;50.836;4.348;2024-01-11T08:20:39;-2.00;99.90
21582;DHT22;10952;50.836;4.348;2024-01-11T08:23:05;-1.90;99.90
21582;DHT22;10952;50.836;4.348;2024-01-11T08:25:33;-1.90;99.90
21582;DHT22;10952;50.836;4.348;2024-01-11T08:27:58;-2.10;99.90
21582;DHT22;10952;50.836;4.348;2024-01-11T08:30:24;-2.00;99.90
21582;DHT22;10952;50.836;4.348;2024-01-11T08:32:50;-2.00;99.90
21582;DHT22;10952;50.836;4.348;2024-01-11T08:35:16;-2.00;99.90
21582;DHT22;10952;50.836;4.348;2024-01-11T08:37:42;-1.90;99.90
21582;DHT22;10952;50.836;4.348;2024-01-11T08:40:08;-2.00;99.90
21582;DHT22;10952;50.836;4.348;2024-01-11T08:42:34;-2.00;99.90
21582;DHT22;10952;50.836;4.348;2024-01-11T08:45:00;-1.90;99.90
21582;DHT22;10952;50.836;4.348;2024-01-11T08:47:32;-1.80;99.90
21582;DHT22;10952;50.836;4.348;2024-01-11T08:49:58;-1.70;99.90
21582;DHT22;10952;50.836;4.348;2024-01-11T08:52:23;-1.70;99.90
21582;DHT22;10952;50.836;4.348;2024-01-11T08:54:49;-1.60;99.90
21582;DHT22;10952;50.836;4.348;2024-01-11T08:57:15;-1.60;99.90
21582;DHT22;10952;50.836;4.348;2024-01-11T08:59:41;-1.70;99.90
21582;DHT22;10952;50.836;4.348;2024-01-11T09:02:06;-1.70;99.90
21582;DHT22;10952;50.836;4.348;2024-01-11T09:04:32;-1.60;99.90
21582;DHT22;10952;50.836;4.348;2024-01-11T09:06:59;-1.50;99.90
21582;DHT22;10952;50.836;4.348;2024-01-11T09:09:25;-1.50;99.90
21582;DHT22;10952;50.836;4.348;2024-01-11T09:11:51;-1.70;99.90
21582;DHT22;10952;50.836;4.348;2024-01-11T09:14:17;-1.80;99.90
21582;DHT22;10952;50.836;4.348;2024-01-11T09:16:43;-1.60;99.90
21582;DHT22;10952;50.836;4.348;2024-01-11T09:19:10;-1.50;99.90
21582;DHT22;10952;50.836;4.348;2024-01-11T09:21:36;-1.40;99.90
21582;DHT22;10952;50.836;4.348;2024-01-11T09:24:02;-1.40;99.90
21582;DHT22;10952;50.836;4.348;2024-01-11T09:26:28;-1.40;99.90
21582;DHT22;10952;50.836;4.348;2024-01-11T09:28:53;-1.20;99.90
21582;DHT22;10952;50.836;4.348;2024-01-11T09:31:19;-1.50;99.90
21582;DHT22;10952;50.836;4.348;2024-01-11T09:33:45;-1.60;99.90
21582;DHT22;10952;50.836;4.348;2024-01-11T09:36:12;-1.50;99.90
21582;DHT22;10952;50.836;4.348;2024-01-11T09:38:38;-1.50;99.90
21582;DHT22;10952;50.836;4.348;2024-01-11T09:41:08;-1.30;99.90
21582;DHT22;10952;50.836;4.348;2024-01-11T09:43:35;-1.00;99.90
21582;DHT22;10952;50.836;4.348;2024-01-11T09:46:05;-1.00;99.90
21582;DHT22;10952;50.836;4.348;2024-01-11T09:48:35;-1.10;99.90
21582;DHT22;10952;50.836;4.348;2024-01-11T09:51:05;-1.20;99.90
21582;DHT22;10952;50.836;4.348;2024-01-11T09:53:33;-1.20;99.90
21582;DHT22;10952;50.836;4.348;2024-01-11T09:56:09;-1.10;99.90
21582;DHT22;10952;50.836;4.348;2024-01-11T09:58:36;-1.00;99.90
21582;DHT22;10952;50.836;4.348;2024-01-11T10:01:02;-0.90;99.90
21582;DHT22;10952;50.836;4.348;2024-01-11T10:03:28;-0.70;99.90
21582;DHT22;10952;50.836;4.348;2024-01-11T10:05:58;-0.60;99.90
21582;DHT22;10952;50.836;4.348;2024-01-11T10:08:25;-0.40;99.90
21582;DHT22;10952;50.836;4.348;2024-01-11T10:10:51;-0.30;99.90
21582;DHT22;10952;50.836;4.348;2024-01-11T10:13:18;-0.30;99.90
21582;DHT22;10952;50.836;4.348;2024-01-11T10:15:44;-0.20;99.90
21582;DHT22;10952;50.836;4.348;2024-01-11T10:18:10;-0.10;99.90
21582;DHT22;10952;50.836;4.348;2024-01-11T10:20:37;-0.20;99.90
21582;DHT22;10952;50.836;4.348;2024-01-11T10:23:03;-0.10;99.90
21582;DHT22;10952;50.836;4.348;2024-01-11T10:25:28;0.00;99.90
21582;DHT22;10952;50.836;4.348;2024-01-11T10:27:55;0.00;99.90
21582;DHT22;10952;50.836;4.348;2024-01-11T10:30:20;0.10;99.90
21582;DHT22;10952;50.836;4.348;2024-01-11T10:32:49;0.20;99.90
21582;DHT22;10952;50.836;4.348;2024-01-11T10:35:15;0.30;99.90
21582;DHT22;10952;50.836;4.348;2024-01-11T10:37:44;0.40;99.90
21582;DHT22;10952;50.836;4.348;2024-01-11T10:40:10;0.40;99.90
21582;DHT22;10952;50.836;4.348;2024-01-11T10:42:51;0.50;99.90
21582;DHT22;10952;50.836;4.348;2024-01-11T10:45:19;0.80;99.90
21582;DHT22;10952;50.836;4.348;2024-01-11T10:50:24;2.30;99.90
21582;DHT22;10952;50.836;4.348;2024-01-11T10:53:04;3.60;99.90
21582;DHT22;10952;50.836;4.348;2024-01-11T10:55:33;5.20;99.90
21582;DHT22;10952;50.836;4.348;2024-01-11T10:58:01;5.80;99.90
21582;DHT22;10952;50.836;4.348;2024-01-11T11:00:28;6.50;99.90
21582;DHT22;10952;50.836;4.348;2024-01-11T11:02:55;7.20;99.90
21582;DHT22;10952;50.836;4.348;2024-01-11T11:05:21;8.10;99.90
21582;DHT22;10952;50.836;4.348;2024-01-11T11:07:50;8.60;99.90
21582;DHT22;10952;50.836;4.348;2024-01-11T11:10:21;8.90;99.90
21582;DHT22;10952;50.836;4.348;2024-01-11T11:12:48;9.40;99.90
21582;DHT22;10952;50.836;4.348;2024-01-11T11:15:14;9.80;99.90
21582;DHT22;10952;50.836;4.348;2024-01-11T11:17:42;9.70;99.90
21582;DHT22;10952;50.836;4.348;2024-01-11T11:20:10;10.30;99.90
21582;DHT22;10952;50.836;4.348;2024-01-11T11:22:42;10.50;99.30
21582;DHT22;10952;50.836;4.348;2024-01-11T11:25:11;11.20;98.20
21582;DHT22;10952;50.836;4.348;2024-01-11T11:27:49;11.60;97.00
21582;DHT22;10952;50.836;4.348;2024-01-11T11:30:14;11.80;95.60
21582;DHT22;10952;50.836;4.348;2024-01-11T11:32:44;12.10;94.50
21582;DHT22;10952;50.836;4.348;2024-01-11T11:35:10;11.60;94.50
21582;DHT22;10952;50.836;4.348;2024-01-11T11:37:39;11.70;94.50
21582;DHT22;10952;50.836;4.348;2024-01-11T11:40:09;11.40;94.40
21582;DHT22;10952;50.836;4.348;2024-01-11T11:42:39;10.90;94.80
21582;DHT22;10952;50.836;4.348;2024-01-11T11:45:07;10.10;95.50
21582;DHT22;10952;50.836;4.348;2024-01-11T11:47:37;8.70;97.20
21582;DHT22;10952;50.836;4.348;2024-01-11T11:50:08;7.70;99.00
21582;DHT22;10952;50.836;4.348;2024-01-11T11:52:39;7.10;99.90
21582;DHT22;10952;50.836;4.348;2024-01-11T11:55:07;6.20;99.90
21582;DHT22;10952;50.836;4.348;2024-01-11T11:57:34;5.60;99.90
21582;DHT22;10952;50.836;4.348;2024-01-11T12:00:00;5.20;99.90
21582;DHT22;10952;50.836;4.348;2024-01-11T12:02:31;4.90;99.90
21582;DHT22;10952;50.836;4.348;2024-01-11T12:04:56;4.50;99.90
21582;DHT22;10952;50.836;4.348;2024-01-11T12:07:22;4.10;99.90
21582;DHT22;10952;50.836;4.348;2024-01-11T12:09:49;3.80;99.90
21582;DHT22;10952;50.836;4.348;2024-01-11T12:12:16;3.30;99.90
21582;DHT22;10952;50.836;4.348;2024-01-11T12:14:43;3.40;99.90
21582;DHT22;10952;50.836;4.348;2024-01-11T12:17:09;3.60;99.90
21582;DHT22;10952;50.836;4.348;2024-01-11T12:19:34;3.60;99.90
21582;DHT22;10952;50.836;4.348;2024-01-11T12:22:00;3.50;99.90
21582;DHT22;10952;50.836;4.348;2024-01-11T12:24:26;3.40;99.90
21582;DHT22;10952;50.836;4.348;2024-01-11T12:26:52;3.30;99.90
21582;DHT22;10952;50.836;4.348;2024-01-11T12:29:20;3.20;99.90
21582;DHT22;10952;50.836;4.348;2024-01-11T12:31:47;3.30;99.90
21582;DHT22;10952;50.836;4.348;2024-01-11T12:34:13;3.30;99.90
21582;DHT22;10952;50.836;4.348;2024-01-11T12:36:40;3.20;99.90
21582;DHT22;10952;50.836;4.348;2024-01-11T12:39:06;3.00;99.90
21582;DHT22;10952;50.836;4.348;2024-01-11T12:41:35;3.00;99.90
21582;DHT22;10952;50.836;4.348;2024-01-11T12:44:01;2.90;99.90
21582;DHT22;10952;50.836;4.348;2024-01-11T12:46:27;2.90;99.90
21582;DHT22;10952;50.836;4.348;2024-01-11T12:48:54;2.80;99.90
21582;DHT22;10952;50.836;4.348;2024-01-11T12:51:20;3.00;99.90
21582;DHT22;10952;50.836;4.348;2024-01-11T12:53:50;3.00;99.90
21582;DHT22;10952;50.836;4.348;2024-01-11T12:56:18;3.00;99.90
21582;DHT22;10952;50.836;4.348;2024-01-11T12:58:44;2.90;99.90
21582;DHT22;10952;50.836;4.348;2024-01-11T13:01:12;2.80;99.90
21582;DHT22;10952;50.836;4.348;2024-01-11T13:03:43;2.60;99.90
21582;DHT22;10952;50.836;4.348;2024-01-11T13:06:09;2.90;99.90
21582;DHT22;10952;50.836;4.348;2024-01-11T13:08:37;3.50;99.90
21582;DHT22;10952;50.836;4.348;2024-01-11T13:11:06;4.00;99.90
21582;DHT22;10952;50.836;4.348;2024-01-11T13:13:35;4.40;99.90
21582;DHT22;10952;50.836;4.348;2024-01-11T13:16:02;4.70;99.90
21582;DHT22;10952;50.836;4.348;2024-01-11T13:18:32;4.60;99.90
21582;DHT22;10952;50.836;4.348;2024-01-11T13:20:58;4.90;99.90
21582;DHT22;10952;50.836;4.348;2024-01-11T13:23:24;4.90;99.90
21582;DHT22;10952;50.836;4.348;2024-01-11T13:25:51;5.40;99.90
21582;DHT22;10952;50.836;4.348;2024-01-11T13:28:17;5.50;99.90
21582;DHT22;10952;50.836;4.348;2024-01-11T13:30:44;5.40;99.90
21582;DHT22;10952;50.836;4.348;2024-01-11T13:33:16;5.30;99.90
21582;DHT22;10952;50.836;4.348;2024-01-11T13:35:42;5.20;99.90
21582;DHT22;10952;50.836;4.348;2024-01-11T13:38:09;5.10;99.90
21582;DHT22;10952;50.836;4.348;2024-01-11T13:40:35;5.00;99.90
21582;DHT22;10952;50.836;4.348;2024-01-11T13:43:01;5.20;99.90
21582;DHT22;10952;50.836;4.348;2024-01-11T13:45:28;5.30;99.90
21582;DHT22;10952;50.836;4.348;2024-01-11T13:47:55;5.30;99.90
21582;DHT22;10952;50.836;4.348;2024-01-11T13:50:21;5.20;99.90
21582;DHT22;10952;50.836;4.348;2024-01-11T13:52:47;5.10;99.90
21582;DHT22;10952;50.836;4.348;2024-01-11T13:55:13;4.80;99.90
21582;DHT22;10952;50.836;4.348;2024-01-11T13:57:39;4.70;99.90
21582;DHT22;10952;50.836;4.348;2024-01-11T14:00:06;4.50;99.90
21582;DHT22;10952;50.836;4.348;2024-01-11T14:02:32;4.30;99.90
21582;DHT22;10952;50.836;4.348;2024-01-11T14:04:59;4.30;99.90
21582;DHT22;10952;50.836;4.348;2024-01-11T14:07:25;4.50;99.90
21582;DHT22;10952;50.836;4.348;2024-01-11T14:09:51;4.30;99.90
21582;DHT22;10952;50.836;4.348;2024-01-11T14:12:17;4.10;99.90
21582;DHT22;10952;50.836;4.348;2024-01-11T14:14:43;4.30;99.90
21582;DHT22;10952;50.836;4.348;2024-01-11T14:17:09;4.40;99.90
21582;DHT22;10952;50.836;4.348;2024-01-11T14:19:35;4.40;99.90
21582;DHT22;10952;50.836;4.348;2024-01-11T14:22:01;4.20;99.90
21582;DHT22;10952;50.836;4.348;2024-01-11T14:24:27;4.30;99.90
21582;DHT22;10952;50.836;4.348;2024-01-11T14:26:53;4.40;99.90
21582;DHT22;10952;50.836;4.348;2024-01-11T14:29:18;4.30;99.90
21582;DHT22;10952;50.836;4.348;2024-01-11T14:31:44;4.30;99.90
21582;DHT22;10952;50.836;4.348;2024-01-11T14:34:10;4.20;99.90
21582;DHT22;10952;50.836;4.348;2024-01-11T14:36:38;4.10;99.90
21582;DHT22;10952;50.836;4.348;2024-01-11T14:39:04;4.00;99.90
21582;DHT22;10952;50.836;4.348;2024-01-11T14:41:30;4.00;99.90
21582;DHT22;10952;50.836;4.348;2024-01-11T14:43:57;3.80;99.90
21582;DHT22;10952;50.836;4.348;2024-01-11T14:46:22;3.90;99.90
21582;DHT22;10952;50.836;4.348;2024-01-11T14:48:48;3.70;99.90
21582;DHT22;10952;50.836;4.348;2024-01-11T14:51:14;3.80;99.90
21582;DHT22;10952;50.836;4.348;2024-01-11T14:53:41;3.90;99.90
21582;DHT22;10952;50.836;4.348;2024-01-11T14:56:07;3.90;99.90
21582;DHT22;10952;50.836;4.348;2024-01-11T14:58:32;4.10;99.90
21582;DHT22;10952;50.836;4.348;2024-01-11T15:00:58;4.00;99.90
21582;DHT22;10952;50.836;4.348;2024-01-11T15:03:24;3.90;99.90
21582;DHT22;10952;50.836;4.348;2024-01-11T15:05:54;3.90;99.90
21582;DHT22;10952;50.836;4.348;2024-01-11T15:08:19;3.80;99.90
21582;DHT22;10952;50.836;4.348;2024-01-11T15:10:48;3.70;99.90
21582;DHT22;10952;50.836;4.348;2024-01-11T15:13:14;3.60;99.90
21582;DHT22;10952;50.836;4.348;2024-01-11T15:15:40;3.60;99.90
21582;DHT22;10952;50.836;4.348;2024-01-11T15:18:06;3.40;99.90
21582;DHT22;10952;50.836;4.348;2024-01-11T15:20:33;3.40;99.90
21582;DHT22;10952;50.836;4.348;2024-01-11T15:22:59;3.40;99.90
21582;DHT22;10952;50.836;4.348;2024-01-11T15:25:24;3.60;99.90
21582;DHT22;10952;50.836;4.348;2024-01-11T15:27:53;3.60;99.90
21582;DHT22;10952;50.836;4.348;2024-01-11T15:30:18;3.50;99.90
21582;DHT22;10952;50.836;4.348;2024-01-11T15:32:44;3.40;99.90